Terminal Aerodrome Forecast
Issued by NWS Goodland, KS

Home | Current Version | Previous Version | Text Only | Print | Product List | Glossary On
Versions: 1 2 3 4 5 6 7 8 9 10 11 12 13 14 15 16 17 18
038
FTUS43 KGLD 061120
TAFGLD
TAF
KGLD 061120Z 0612/0712 31010KT P6SM SKC
     FM062000 VRB03KT P6SM SCT200
     FM062200 15005KT P6SM BKN200
     FM070500 10013KT P6SM -SN OVC060
     FM070800 09015G23KT 6SM -SN BLSN OVC035
     FM070900 09015G23KT 5SM -SN BLSN OVC030
     FM071100 07014KT 4SM -SN OVC020=

USA.gov is the U.S. government's official web portal to all federal, state and local government web resources and services.